North American — WBL7959 — position and weather

sailwx.info

Track history (hours):
 
Tides and Currents Weather Stations Pressure Air Temp Water Temp Dewpoint Dewpoint Depression Visibility Wind Speed Wind Dir Waves Ship Positions

North American

Owner: NORTH AMERICAN INC, SEATTLE, WA. More information available from US FCC via Universal Licensing System and Coast Guard Vessel Documentation Center.

Last reported at 2015-Sep-01 20:13 UTC. Time now 2015-Sep-02 10:40 UTC.
Position N 56°22' W 133°40'.

Length 38 m; draft 2.5 m.

Type: Fishing. MMSI: 367307370.

Date/timePositionNaut miles runAvg speedWind from/ knotsBaromVisibWave heightAir tempDewpointWater temp
2015-Sep-01 20:13N 56°22' W 133°40'7 9.9
2015-Sep-01 19:33N 56°23' W 133°28'10 9.6
2015-Sep-01 18:33N 56°24' W 133°11'9 9.0
2015-Sep-01 17:34N 56°30' W 132°59'1110.5
2015-Sep-01 16:33N 56°41' W 132°56'48 2.2
2015-Aug-31 18:27N 56°52' W 134°22'0 0.0
2015-Aug-31 17:33N 56°52' W 134°22'5 4.8
2015-Aug-31 16:34N 56°55' W 134°29'9 8.9
2015-Aug-31 15:34N 57°01' W 134°41'5 0.5
2015-Aug-31 04:15N 57°05' W 134°47'710.0
2015-Aug-31 03:33N 57°12' W 134°46'2510.5
2015-Aug-31 01:09N 57°37' W 134°49'50 4.3
2015-Aug-30 13:30N 58°23' W 135°28'8 8.1
2015-Aug-30 12:28N 58°18' W 135°41'7 7.1
2015-Aug-30 11:31N 58°19' W 135°54'6 6.4
2015-Aug-30 10:33N 58°19' W 136°05'  
2015-Aug-27 20:32N 58°19' W 136°09'1010.1
2015-Aug-27 19:32N 58°19' W 135°49'13 9.5
2015-Aug-27 18:13N 58°19' W 135°26'  
Track history (hours):
 
Tides and Currents Weather Stations Pressure Air Temp Water Temp Dewpoint Dewpoint Depression Visibility Wind Speed Wind Dir Waves Ship Positions

North American

Owner: NORTH AMERICAN INC, SEATTLE, WA. More information available from US FCC via Universal Licensing System and Coast Guard Vessel Documentation Center.

Last reported at 2015-Sep-01 20:13 UTC. Time now 2015-Sep-02 10:40 UTC.
Position N 56°22' W 133°40'.

Length 38 m; draft 2.5 m.

Type: Fishing. MMSI: 367307370.

Date/timePositionNaut miles runAvg speedWind from/ knotsBaromVisibWave heightAir tempDewpointWater temp
2015-Sep-01 20:13N 56°22' W 133°40'7 9.9
2015-Sep-01 19:33N 56°23' W 133°28'10 9.6
2015-Sep-01 18:33N 56°24' W 133°11'9 9.0
2015-Sep-01 17:34N 56°30' W 132°59'1110.5
2015-Sep-01 16:33N 56°41' W 132°56'48 2.2
2015-Aug-31 18:27N 56°52' W 134°22'0 0.0
2015-Aug-31 17:33N 56°52' W 134°22'5 4.8
2015-Aug-31 16:34N 56°55' W 134°29'9 8.9
2015-Aug-31 15:34N 57°01' W 134°41'5 0.5
2015-Aug-31 04:15N 57°05' W 134°47'710.0
2015-Aug-31 03:33N 57°12' W 134°46'2510.5
2015-Aug-31 01:09N 57°37' W 134°49'50 4.3
2015-Aug-30 13:30N 58°23' W 135°28'8 8.1
2015-Aug-30 12:28N 58°18' W 135°41'7 7.1
2015-Aug-30 11:31N 58°19' W 135°54'6 6.4
2015-Aug-30 10:33N 58°19' W 136°05'  
2015-Aug-27 20:32N 58°19' W 136°09'1010.1
2015-Aug-27 19:32N 58°19' W 135°49'13 9.5
2015-Aug-27 18:13N 58°19' W 135°26'  

Dump ship's entire track history